sensor_id;sensor_type;location;lat;lon;timestamp;P1;durP1;ratioP1;P2;durP2;ratioP2
56541;SDS011;42438;53.174;6.730;2022-07-17T00:02:28;4.15;;;2.22;;
56541;SDS011;42438;53.174;6.730;2022-07-17T00:04:59;6.00;;;3.22;;
56541;SDS011;42438;53.174;6.730;2022-07-17T00:07:30;4.68;;;2.28;;
56541;SDS011;42438;53.174;6.730;2022-07-17T00:10:00;6.47;;;2.42;;
56541;SDS011;42438;53.174;6.730;2022-07-17T00:12:31;5.07;;;2.45;;
56541;SDS011;42438;53.174;6.730;2022-07-17T00:15:02;4.25;;;2.45;;
56541;SDS011;42438;53.174;6.730;2022-07-17T00:17:33;3.67;;;1.92;;
56541;SDS011;42438;53.174;6.730;2022-07-17T00:20:04;6.78;;;2.90;;
56541;SDS011;42438;53.174;6.730;2022-07-17T00:22:36;5.18;;;2.55;;
56541;SDS011;42438;53.174;6.730;2022-07-17T00:25:06;8.15;;;2.50;;
56541;SDS011;42438;53.174;6.730;2022-07-17T00:27:37;9.07;;;2.80;;
56541;SDS011;42438;53.174;6.730;2022-07-17T00:30:08;6.15;;;2.42;;
56541;SDS011;42438;53.174;6.730;2022-07-17T00:32:40;4.30;;;2.30;;
56541;SDS011;42438;53.174;6.730;2022-07-17T00:35:11;4.68;;;2.40;;
56541;SDS011;42438;53.174;6.730;2022-07-17T00:37:43;7.50;;;2.80;;
56541;SDS011;42438;53.174;6.730;2022-07-17T00:40:19;5.32;;;2.80;;
56541;SDS011;42438;53.174;6.730;2022-07-17T00:42:51;5.47;;;2.55;;
56541;SDS011;42438;53.174;6.730;2022-07-17T00:45:22;6.03;;;2.55;;
56541;SDS011;42438;53.174;6.730;2022-07-17T00:47:59;6.47;;;2.40;;
56541;SDS011;42438;53.174;6.730;2022-07-17T00:50:34;6.15;;;1.98;;
56541;SDS011;42438;53.174;6.730;2022-07-17T00:53:06;5.88;;;2.30;;
56541;SDS011;42438;53.174;6.730;2022-07-17T00:55:39;6.50;;;3.10;;
56541;SDS011;42438;53.174;6.730;2022-07-17T00:58:11;6.57;;;2.13;;
56541;SDS011;42438;53.174;6.730;2022-07-17T01:00:48;4.97;;;2.58;;
56541;SDS011;42438;53.174;6.730;2022-07-17T01:03:21;8.07;;;2.50;;
56541;SDS011;42438;53.174;6.730;2022-07-17T01:05:54;5.35;;;2.75;;
56541;SDS011;42438;53.174;6.730;2022-07-17T01:08:24;4.07;;;2.08;;
56541;SDS011;42438;53.174;6.730;2022-07-17T01:10:55;6.15;;;2.33;;
56541;SDS011;42438;53.174;6.730;2022-07-17T01:13:26;3.92;;;2.03;;
56541;SDS011;42438;53.174;6.730;2022-07-17T01:15:57;5.47;;;2.30;;
56541;SDS011;42438;53.174;6.730;2022-07-17T01:18:27;5.25;;;2.20;;
56541;SDS011;42438;53.174;6.730;2022-07-17T01:21:03;5.05;;;2.30;;
56541;SDS011;42438;53.174;6.730;2022-07-17T01:23:37;3.97;;;2.10;;
56541;SDS011;42438;53.174;6.730;2022-07-17T01:26:07;4.47;;;2.13;;
56541;SDS011;42438;53.174;6.730;2022-07-17T01:28:38;4.03;;;2.22;;
56541;SDS011;42438;53.174;6.730;2022-07-17T01:31:08;5.65;;;2.17;;
56541;SDS011;42438;53.174;6.730;2022-07-17T01:33:39;6.10;;;2.28;;
56541;SDS011;42438;53.174;6.730;2022-07-17T01:36:10;7.05;;;2.38;;
56541;SDS011;42438;53.174;6.730;2022-07-17T01:38:40;3.55;;;2.10;;
56541;SDS011;42438;53.174;6.730;2022-07-17T01:41:11;5.30;;;2.33;;
56541;SDS011;42438;53.174;6.730;2022-07-17T01:43:42;6.25;;;2.47;;
56541;SDS011;42438;53.174;6.730;2022-07-17T01:46:12;4.30;;;2.15;;
56541;SDS011;42438;53.174;6.730;2022-07-17T01:48:43;4.40;;;2.47;;
56541;SDS011;42438;53.174;6.730;2022-07-17T01:51:14;5.38;;;2.65;;
56541;SDS011;42438;53.174;6.730;2022-07-17T01:53:44;5.88;;;2.60;;
56541;SDS011;42438;53.174;6.730;2022-07-17T01:56:15;4.10;;;2.20;;
56541;SDS011;42438;53.174;6.730;2022-07-17T01:58:45;5.05;;;2.58;;
56541;SDS011;42438;53.174;6.730;2022-07-17T02:01:16;6.20;;;1.98;;
56541;SDS011;42438;53.174;6.730;2022-07-17T02:03:47;5.28;;;2.20;;
56541;SDS011;42438;53.174;6.730;2022-07-17T02:06:17;6.68;;;2.85;;
56541;SDS011;42438;53.174;6.730;2022-07-17T02:08:48;4.97;;;2.75;;
56541;SDS011;42438;53.174;6.730;2022-07-17T02:11:20;5.20;;;2.20;;
56541;SDS011;42438;53.174;6.730;2022-07-17T02:13:51;4.22;;;2.50;;
56541;SDS011;42438;53.174;6.730;2022-07-17T02:16:22;3.97;;;2.55;;
56541;SDS011;42438;53.174;6.730;2022-07-17T02:18:52;5.68;;;2.30;;
56541;SDS011;42438;53.174;6.730;2022-07-17T02:21:23;4.38;;;2.03;;
56541;SDS011;42438;53.174;6.730;2022-07-17T02:23:54;4.63;;;2.10;;
56541;SDS011;42438;53.174;6.730;2022-07-17T02:26:24;4.70;;;2.08;;
56541;SDS011;42438;53.174;6.730;2022-07-17T02:28:55;4.72;;;2.10;;
56541;SDS011;42438;53.174;6.730;2022-07-17T02:31:26;3.40;;;1.90;;
56541;SDS011;42438;53.174;6.730;2022-07-17T02:33:56;4.43;;;2.13;;
56541;SDS011;42438;53.174;6.730;2022-07-17T02:36:27;3.35;;;1.73;;
56541;SDS011;42438;53.174;6.730;2022-07-17T02:38:58;5.70;;;2.53;;
56541;SDS011;42438;53.174;6.730;2022-07-17T02:41:29;8.32;;;3.03;;
56541;SDS011;42438;53.174;6.730;2022-07-17T02:43:59;6.18;;;2.25;;
56541;SDS011;42438;53.174;6.730;2022-07-17T02:46:30;6.43;;;2.97;;
56541;SDS011;42438;53.174;6.730;2022-07-17T02:49:01;6.15;;;2.78;;
56541;SDS011;42438;53.174;6.730;2022-07-17T02:51:31;5.25;;;2.67;;
56541;SDS011;42438;53.174;6.730;2022-07-17T02:54:02;6.60;;;3.10;;
56541;SDS011;42438;53.174;6.730;2022-07-17T02:56:32;5.57;;;2.90;;
56541;SDS011;42438;53.174;6.730;2022-07-17T02:59:03;5.82;;;3.20;;
56541;SDS011;42438;53.174;6.730;2022-07-17T03:01:34;7.72;;;3.08;;
56541;SDS011;42438;53.174;6.730;2022-07-17T03:04:04;6.00;;;2.53;;
56541;SDS011;42438;53.174;6.730;2022-07-17T03:06:35;5.72;;;2.70;;
56541;SDS011;42438;53.174;6.730;2022-07-17T03:09:06;7.13;;;3.00;;
56541;SDS011;42438;53.174;6.730;2022-07-17T03:11:36;6.15;;;2.53;;
56541;SDS011;42438;53.174;6.730;2022-07-17T03:14:07;7.70;;;2.53;;
56541;SDS011;42438;53.174;6.730;2022-07-17T03:16:37;5.75;;;2.38;;
56541;SDS011;42438;53.174;6.730;2022-07-17T03:19:08;5.15;;;2.55;;
56541;SDS011;42438;53.174;6.730;2022-07-17T03:21:38;8.90;;;2.80;;
56541;SDS011;42438;53.174;6.730;2022-07-17T03:24:09;6.63;;;2.53;;
56541;SDS011;42438;53.174;6.730;2022-07-17T03:26:40;5.97;;;2.60;;
56541;SDS011;42438;53.174;6.730;2022-07-17T03:29:10;4.93;;;2.28;;
56541;SDS011;42438;53.174;6.730;2022-07-17T03:31:41;3.53;;;2.30;;
56541;SDS011;42438;53.174;6.730;2022-07-17T03:34:13;7.00;;;2.85;;
56541;SDS011;42438;53.174;6.730;2022-07-17T03:36:43;5.35;;;2.70;;
56541;SDS011;42438;53.174;6.730;2022-07-17T03:39:14;5.85;;;2.50;;
56541;SDS011;42438;53.174;6.730;2022-07-17T03:41:45;5.38;;;2.40;;
56541;SDS011;42438;53.174;6.730;2022-07-17T03:44:16;4.07;;;2.28;;
56541;SDS011;42438;53.174;6.730;2022-07-17T03:46:47;6.70;;;2.42;;
56541;SDS011;42438;53.174;6.730;2022-07-17T03:49:18;6.40;;;2.38;;
56541;SDS011;42438;53.174;6.730;2022-07-17T03:51:48;4.22;;;2.67;;
56541;SDS011;42438;53.174;6.730;2022-07-17T03:54:19;7.68;;;2.92;;
56541;SDS011;42438;53.174;6.730;2022-07-17T03:56:50;6.22;;;2.42;;
56541;SDS011;42438;53.174;6.730;2022-07-17T03:59:20;4.88;;;1.95;;
56541;SDS011;42438;53.174;6.730;2022-07-17T04:01:51;2.72;;;1.52;;
56541;SDS011;42438;53.174;6.730;2022-07-17T04:04:23;2.90;;;1.60;;
56541;SDS011;42438;53.174;6.730;2022-07-17T04:06:54;4.30;;;2.05;;
56541;SDS011;42438;53.174;6.730;2022-07-17T04:09:25;4.90;;;2.45;;
56541;SDS011;42438;53.174;6.730;2022-07-17T04:11:55;7.28;;;2.92;;
56541;SDS011;42438;53.174;6.730;2022-07-17T04:14:26;6.47;;;2.63;;
56541;SDS011;42438;53.174;6.730;2022-07-17T04:16:56;5.00;;;2.47;;
56541;SDS011;42438;53.174;6.730;2022-07-17T04:19:27;4.20;;;2.40;;
56541;SDS011;42438;53.174;6.730;2022-07-17T04:21:58;6.30;;;2.55;;
56541;SDS011;42438;53.174;6.730;2022-07-17T04:24:28;4.65;;;2.75;;
56541;SDS011;42438;53.174;6.730;2022-07-17T04:26:59;6.60;;;2.70;;
56541;SDS011;42438;53.174;6.730;2022-07-17T04:29:30;8.13;;;3.03;;
56541;SDS011;42438;53.174;6.730;2022-07-17T04:32:00;6.82;;;2.65;;
56541;SDS011;42438;53.174;6.730;2022-07-17T04:34:32;7.60;;;3.30;;
56541;SDS011;42438;53.174;6.730;2022-07-17T04:37:04;7.13;;;3.03;;
56541;SDS011;42438;53.174;6.730;2022-07-17T04:39:34;6.00;;;3.28;;
56541;SDS011;42438;53.174;6.730;2022-07-17T04:42:05;5.28;;;3.03;;
56541;SDS011;42438;53.174;6.730;2022-07-17T04:44:36;5.05;;;3.05;;
56541;SDS011;42438;53.174;6.730;2022-07-17T04:47:06;4.78;;;2.63;;
56541;SDS011;42438;53.174;6.730;2022-07-17T04:49:37;6.20;;;2.97;;
56541;SDS011;42438;53.174;6.730;2022-07-17T04:52:08;5.55;;;3.38;;
56541;SDS011;42438;53.174;6.730;2022-07-17T04:54:38;7.80;;;3.10;;
56541;SDS011;42438;53.174;6.730;2022-07-17T04:57:09;7.15;;;2.80;;
56541;SDS011;42438;53.174;6.730;2022-07-17T04:59:39;4.97;;;2.83;;
56541;SDS011;42438;53.174;6.730;2022-07-17T05:02:10;7.97;;;3.33;;
56541;SDS011;42438;53.174;6.730;2022-07-17T05:04:41;8.35;;;3.38;;
56541;SDS011;42438;53.174;6.730;2022-07-17T05:07:11;6.50;;;3.03;;
56541;SDS011;42438;53.174;6.730;2022-07-17T05:09:43;5.63;;;2.55;;
56541;SDS011;42438;53.174;6.730;2022-07-17T05:12:13;6.38;;;2.78;;
56541;SDS011;42438;53.174;6.730;2022-07-17T05:14:44;4.00;;;2.50;;
56541;SDS011;42438;53.174;6.730;2022-07-17T05:17:15;6.20;;;2.55;;
56541;SDS011;42438;53.174;6.730;2022-07-17T05:19:45;6.80;;;2.53;;
56541;SDS011;42438;53.174;6.730;2022-07-17T05:22:16;6.88;;;2.63;;
56541;SDS011;42438;53.174;6.730;2022-07-17T05:24:46;6.47;;;2.60;;
56541;SDS011;42438;53.174;6.730;2022-07-17T05:27:17;6.78;;;2.25;;
56541;SDS011;42438;53.174;6.730;2022-07-17T05:29:48;4.78;;;2.33;;
56541;SDS011;42438;53.174;6.730;2022-07-17T05:32:18;3.70;;;2.10;;
56541;SDS011;42438;53.174;6.730;2022-07-17T05:34:49;6.93;;;2.40;;
56541;SDS011;42438;53.174;6.730;2022-07-17T05:37:20;6.63;;;2.10;;
56541;SDS011;42438;53.174;6.730;2022-07-17T05:39:50;6.63;;;2.20;;
56541;SDS011;42438;53.174;6.730;2022-07-17T05:42:21;8.95;;;2.88;;
56541;SDS011;42438;53.174;6.730;2022-07-17T05:44:52;6.18;;;2.40;;
56541;SDS011;42438;53.174;6.730;2022-07-17T05:47:22;4.40;;;2.00;;
56541;SDS011;42438;53.174;6.730;2022-07-17T05:49:53;7.20;;;2.30;;
56541;SDS011;42438;53.174;6.730;2022-07-17T05:52:24;4.15;;;2.47;;
56541;SDS011;42438;53.174;6.730;2022-07-17T05:54:54;6.97;;;2.63;;
56541;SDS011;42438;53.174;6.730;2022-07-17T05:57:25;7.47;;;2.08;;
56541;SDS011;42438;53.174;6.730;2022-07-17T05:59:56;5.32;;;2.15;;
56541;SDS011;42438;53.174;6.730;2022-07-17T06:02:26;6.38;;;1.80;;
56541;SDS011;42438;53.174;6.730;2022-07-17T06:04:57;8.80;;;2.55;;
56541;SDS011;42438;53.174;6.730;2022-07-17T06:07:27;4.88;;;2.17;;
56541;SDS011;42438;53.174;6.730;2022-07-17T06:09:58;4.07;;;2.05;;
56541;SDS011;42438;53.174;6.730;2022-07-17T06:12:29;6.57;;;2.00;;
56541;SDS011;42438;53.174;6.730;2022-07-17T06:15:00;7.22;;;1.92;;
56541;SDS011;42438;53.174;6.730;2022-07-17T06:17:31;5.47;;;1.88;;
56541;SDS011;42438;53.174;6.730;2022-07-17T06:20:03;7.72;;;2.10;;
56541;SDS011;42438;53.174;6.730;2022-07-17T06:22:34;5.33;;;2.30;;
56541;SDS011;42438;53.174;6.730;2022-07-17T06:25:05;6.63;;;2.42;;
56541;SDS011;42438;53.174;6.730;2022-07-17T06:27:40;6.38;;;1.95;;
56541;SDS011;42438;53.174;6.730;2022-07-17T06:30:12;7.15;;;1.83;;
56541;SDS011;42438;53.174;6.730;2022-07-17T06:32:44;7.68;;;1.90;;
56541;SDS011;42438;53.174;6.730;2022-07-17T06:35:15;4.47;;;1.65;;
56541;SDS011;42438;53.174;6.730;2022-07-17T06:37:46;5.95;;;1.92;;
56541;SDS011;42438;53.174;6.730;2022-07-17T06:40:16;6.85;;;1.42;;
56541;SDS011;42438;53.174;6.730;2022-07-17T06:42:47;5.65;;;1.58;;
56541;SDS011;42438;53.174;6.730;2022-07-17T06:45:18;6.22;;;1.70;;
56541;SDS011;42438;53.174;6.730;2022-07-17T06:47:48;8.13;;;1.70;;
56541;SDS011;42438;53.174;6.730;2022-07-17T06:50:20;5.38;;;1.77;;
56541;SDS011;42438;53.174;6.730;2022-07-17T06:52:51;5.00;;;1.55;;
56541;SDS011;42438;53.174;6.730;2022-07-17T06:55:21;6.28;;;1.98;;
56541;SDS011;42438;53.174;6.730;2022-07-17T06:57:52;4.70;;;1.50;;
56541;SDS011;42438;53.174;6.730;2022-07-17T07:00:22;6.53;;;1.70;;
56541;SDS011;42438;53.174;6.730;2022-07-17T07:02:53;4.82;;;1.60;;
56541;SDS011;42438;53.174;6.730;2022-07-17T07:05:24;4.00;;;1.33;;
56541;SDS011;42438;53.174;6.730;2022-07-17T07:07:54;6.43;;;1.70;;
56541;SDS011;42438;53.174;6.730;2022-07-17T07:10:25;5.03;;;1.70;;
56541;SDS011;42438;53.174;6.730;2022-07-17T07:12:56;4.47;;;1.70;;
56541;SDS011;42438;53.174;6.730;2022-07-17T07:15:26;4.25;;;1.45;;
56541;SDS011;42438;53.174;6.730;2022-07-17T07:17:57;4.25;;;1.65;;
56541;SDS011;42438;53.174;6.730;2022-07-17T07:20:28;3.83;;;1.65;;
56541;SDS011;42438;53.174;6.730;2022-07-17T07:22:59;4.15;;;1.55;;
56541;SDS011;42438;53.174;6.730;2022-07-17T07:25:30;3.85;;;1.65;;
56541;SDS011;42438;53.174;6.730;2022-07-17T07:28:01;4.32;;;1.50;;
56541;SDS011;42438;53.174;6.730;2022-07-17T07:30:32;5.55;;;1.88;;
56541;SDS011;42438;53.174;6.730;2022-07-17T07:33:03;4.72;;;1.52;;
56541;SDS011;42438;53.174;6.730;2022-07-17T07:35:34;4.97;;;1.45;;
56541;SDS011;42438;53.174;6.730;2022-07-17T07:38:04;5.82;;;2.03;;
56541;SDS011;42438;53.174;6.730;2022-07-17T07:40:35;6.78;;;1.60;;
56541;SDS011;42438;53.174;6.730;2022-07-17T07:43:06;4.78;;;1.70;;
56541;SDS011;42438;53.174;6.730;2022-07-17T07:45:37;7.20;;;1.50;;
56541;SDS011;42438;53.174;6.730;2022-07-17T07:48:07;7.25;;;1.48;;
56541;SDS011;42438;53.174;6.730;2022-07-17T07:50:40;3.90;;;1.65;;
56541;SDS011;42438;53.174;6.730;2022-07-17T07:53:10;6.68;;;1.58;;
56541;SDS011;42438;53.174;6.730;2022-07-17T07:55:41;5.97;;;1.63;;
56541;SDS011;42438;53.174;6.730;2022-07-17T07:58:12;3.28;;;1.33;;
56541;SDS011;42438;53.174;6.730;2022-07-17T08:00:44;4.70;;;1.60;;
56541;SDS011;42438;53.174;6.730;2022-07-17T08:03:15;4.75;;;1.45;;
56541;SDS011;42438;53.174;6.730;2022-07-17T08:05:45;6.22;;;1.50;;
56541;SDS011;42438;53.174;6.730;2022-07-17T08:08:16;5.30;;;1.58;;
56541;SDS011;42438;53.174;6.730;2022-07-17T08:10:47;4.43;;;1.27;;
56541;SDS011;42438;53.174;6.730;2022-07-17T08:13:17;3.53;;;1.45;;
56541;SDS011;42438;53.174;6.730;2022-07-17T08:15:48;3.28;;;1.52;;
56541;SDS011;42438;53.174;6.730;2022-07-17T08:18:19;4.72;;;1.75;;
56541;SDS011;42438;53.174;6.730;2022-07-17T08:20:50;3.08;;;1.38;;
56541;SDS011;42438;53.174;6.730;2022-07-17T08:23:21;3.22;;;1.55;;
56541;SDS011;42438;53.174;6.730;2022-07-17T08:25:51;4.25;;;1.27;;
56541;SDS011;42438;53.174;6.730;2022-07-17T08:28:23;3.22;;;1.33;;
56541;SDS011;42438;53.174;6.730;2022-07-17T08:30:53;4.40;;;1.70;;
56541;SDS011;42438;53.174;6.730;2022-07-17T08:33:24;5.88;;;1.58;;
56541;SDS011;42438;53.174;6.730;2022-07-17T08:35:55;6.10;;;1.70;;
56541;SDS011;42438;53.174;6.730;2022-07-17T08:38:25;3.83;;;1.40;;
56541;SDS011;42438;53.174;6.730;2022-07-17T08:40:56;5.07;;;1.60;;
56541;SDS011;42438;53.174;6.730;2022-07-17T08:43:28;3.38;;;1.70;;
56541;SDS011;42438;53.174;6.730;2022-07-17T08:45:59;5.47;;;2.03;;
56541;SDS011;42438;53.174;6.730;2022-07-17T08:48:30;4.05;;;1.60;;
56541;SDS011;42438;53.174;6.730;2022-07-17T08:51:02;5.95;;;1.92;;
56541;SDS011;42438;53.174;6.730;2022-07-17T08:53:34;5.38;;;1.67;;
56541;SDS011;42438;53.174;6.730;2022-07-17T08:56:05;3.22;;;1.65;;
56541;SDS011;42438;53.174;6.730;2022-07-17T08:58:36;4.57;;;1.45;;
56541;SDS011;42438;53.174;6.730;2022-07-17T09:01:07;4.63;;;1.48;;
56541;SDS011;42438;53.174;6.730;2022-07-17T09:03:38;4.30;;;1.63;;
56541;SDS011;42438;53.174;6.730;2022-07-17T09:06:19;5.32;;;1.33;;
56541;SDS011;42438;53.174;6.730;2022-07-17T09:09:04;3.55;;;1.50;;
56541;SDS011;42438;53.174;6.730;2022-07-17T09:11:42;4.60;;;1.75;;
56541;SDS011;42438;53.174;6.730;2022-07-17T09:14:19;5.93;;;1.80;;
56541;SDS011;42438;53.174;6.730;2022-07-17T09:16:57;5.00;;;1.67;;
56541;SDS011;42438;53.174;6.730;2022-07-17T09:19:31;3.55;;;1.70;;
56541;SDS011;42438;53.174;6.730;2022-07-17T09:22:08;3.88;;;1.42;;
56541;SDS011;42438;53.174;6.730;2022-07-17T09:25:01;4.60;;;1.40;;
56541;SDS011;42438;53.174;6.730;2022-07-17T09:27:32;7.32;;;1.67;;
56541;SDS011;42438;53.174;6.730;2022-07-17T09:30:05;4.53;;;1.40;;
56541;SDS011;42438;53.174;6.730;2022-07-17T09:32:38;4.20;;;1.73;;
56541;SDS011;42438;53.174;6.730;2022-07-17T09:35:10;2.03;;;1.20;;
56541;SDS011;42438;53.174;6.730;2022-07-17T09:37:41;5.40;;;1.45;;
56541;SDS011;42438;53.174;6.730;2022-07-17T09:40:12;2.63;;;1.45;;
56541;SDS011;42438;53.174;6.730;2022-07-17T09:43:03;3.25;;;1.40;;
56541;SDS011;42438;53.174;6.730;2022-07-17T09:45:34;5.82;;;1.20;;
56541;SDS011;42438;53.174;6.730;2022-07-17T09:48:05;5.63;;;1.50;;
56541;SDS011;42438;53.174;6.730;2022-07-17T09:50:37;3.83;;;1.55;;
56541;SDS011;42438;53.174;6.730;2022-07-17T09:53:08;6.35;;;1.75;;
56541;SDS011;42438;53.174;6.730;2022-07-17T09:55:40;4.53;;;1.70;;
56541;SDS011;42438;53.174;6.730;2022-07-17T09:58:11;5.03;;;1.52;;
56541;SDS011;42438;53.174;6.730;2022-07-17T10:00:42;5.30;;;1.80;;
56541;SDS011;42438;53.174;6.730;2022-07-17T10:03:16;5.80;;;1.60;;
56541;SDS011;42438;53.174;6.730;2022-07-17T10:05:48;5.60;;;1.75;;
56541;SDS011;42438;53.174;6.730;2022-07-17T10:08:19;3.88;;;1.40;;
56541;SDS011;42438;53.174;6.730;2022-07-17T10:10:50;5.38;;;1.60;;
56541;SDS011;42438;53.174;6.730;2022-07-17T10:13:21;3.67;;;1.60;;
56541;SDS011;42438;53.174;6.730;2022-07-17T10:15:52;4.47;;;1.65;;
56541;SDS011;42438;53.174;6.730;2022-07-17T10:18:33;4.05;;;1.70;;
56541;SDS011;42438;53.174;6.730;2022-07-17T10:26:33;5.57;;;1.90;;
56541;SDS011;42438;53.174;6.730;2022-07-17T10:29:26;5.95;;;1.58;;
56541;SDS011;42438;53.174;6.730;2022-07-17T10:32:00;3.85;;;1.85;;
56541;SDS011;42438;53.174;6.730;2022-07-17T10:34:39;3.78;;;1.55;;
56541;SDS011;42438;53.174;6.730;2022-07-17T10:48:10;3.17;;;1.52;;
56541;SDS011;42438;53.174;6.730;2022-07-17T10:50:43;5.70;;;1.60;;
56541;SDS011;42438;53.174;6.730;2022-07-17T10:56:05;3.83;;;1.52;;
56541;SDS011;42438;53.174;6.730;2022-07-17T10:58:40;6.20;;;1.80;;
56541;SDS011;42438;53.174;6.730;2022-07-17T11:01:13;3.90;;;1.85;;
56541;SDS011;42438;53.174;6.730;2022-07-17T11:03:51;5.88;;;1.67;;
56541;SDS011;42438;53.174;6.730;2022-07-17T11:06:25;3.00;;;1.52;;
56541;SDS011;42438;53.174;6.730;2022-07-17T11:09:03;3.60;;;1.50;;
56541;SDS011;42438;53.174;6.730;2022-07-17T11:11:36;3.65;;;1.40;;
56541;SDS011;42438;53.174;6.730;2022-07-17T11:16:45;3.15;;;1.50;;
56541;SDS011;42438;53.174;6.730;2022-07-17T11:19:33;5.53;;;1.70;;
56541;SDS011;42438;53.174;6.730;2022-07-17T11:22:06;3.65;;;1.63;;
56541;SDS011;42438;53.174;6.730;2022-07-17T11:24:40;5.03;;;1.98;;
56541;SDS011;42438;53.174;6.730;2022-07-17T11:27:27;4.32;;;1.48;;
56541;SDS011;42438;53.174;6.730;2022-07-17T11:30:00;6.70;;;1.50;;
56541;SDS011;42438;53.174;6.730;2022-07-17T11:32:36;4.07;;;1.63;;
56541;SDS011;42438;53.174;6.730;2022-07-17T11:35:15;4.20;;;1.83;;
56541;SDS011;42438;53.174;6.730;2022-07-17T11:37:49;4.88;;;1.55;;
56541;SDS011;42438;53.174;6.730;2022-07-17T11:40:20;4.00;;;1.48;;
56541;SDS011;42438;53.174;6.730;2022-07-17T11:42:58;3.85;;;1.55;;
56541;SDS011;42438;53.174;6.730;2022-07-17T11:45:30;5.70;;;1.83;;
56541;SDS011;42438;53.174;6.730;2022-07-17T11:48:01;2.95;;;1.40;;
56541;SDS011;42438;53.174;6.730;2022-07-17T11:50:32;4.68;;;1.50;;
56541;SDS011;42438;53.174;6.730;2022-07-17T11:53:04;7.07;;;1.70;;
56541;SDS011;42438;53.174;6.730;2022-07-17T11:55:38;5.00;;;1.60;;
56541;SDS011;42438;53.174;6.730;2022-07-17T11:58:09;3.83;;;1.70;;
56541;SDS011;42438;53.174;6.730;2022-07-17T12:00:40;3.75;;;1.77;;
56541;SDS011;42438;53.174;6.730;2022-07-17T12:03:11;3.97;;;1.45;;
56541;SDS011;42438;53.174;6.730;2022-07-17T12:05:42;3.47;;;1.40;;
56541;SDS011;42438;53.174;6.730;2022-07-17T12:08:17;5.20;;;1.77;;
56541;SDS011;42438;53.174;6.730;2022-07-17T12:10:59;4.15;;;1.85;;
56541;SDS011;42438;53.174;6.730;2022-07-17T12:13:40;5.13;;;1.55;;
56541;SDS011;42438;53.174;6.730;2022-07-17T12:16:23;4.63;;;1.50;;
56541;SDS011;42438;53.174;6.730;2022-07-17T12:18:59;3.92;;;1.50;;
56541;SDS011;42438;53.174;6.730;2022-07-17T12:21:32;4.70;;;1.65;;
56541;SDS011;42438;53.174;6.730;2022-07-17T12:24:04;3.75;;;1.80;;
56541;SDS011;42438;53.174;6.730;2022-07-17T12:26:35;3.58;;;1.50;;
56541;SDS011;42438;53.174;6.730;2022-07-17T12:29:06;3.85;;;1.60;;
56541;SDS011;42438;53.174;6.730;2022-07-17T12:31:38;3.25;;;1.88;;
56541;SDS011;42438;53.174;6.730;2022-07-17T12:34:08;4.40;;;1.60;;
56541;SDS011;42438;53.174;6.730;2022-07-17T12:36:39;4.78;;;1.73;;
56541;SDS011;42438;53.174;6.730;2022-07-17T12:39:10;6.22;;;1.90;;
56541;SDS011;42438;53.174;6.730;2022-07-17T12:41:41;5.07;;;1.80;;
56541;SDS011;42438;53.174;6.730;2022-07-17T12:44:12;5.65;;;1.90;;
56541;SDS011;42438;53.174;6.730;2022-07-17T12:46:43;2.63;;;1.50;;
56541;SDS011;42438;53.174;6.730;2022-07-17T12:49:14;4.30;;;1.55;;
56541;SDS011;42438;53.174;6.730;2022-07-17T12:51:45;4.28;;;1.63;;
56541;SDS011;42438;53.174;6.730;2022-07-17T12:54:16;4.60;;;1.88;;
56541;SDS011;42438;53.174;6.730;2022-07-17T12:56:46;4.90;;;1.98;;
56541;SDS011;42438;53.174;6.730;2022-07-17T12:59:17;3.83;;;1.98;;
56541;SDS011;42438;53.174;6.730;2022-07-17T13:01:48;4.65;;;1.80;;
56541;SDS011;42438;53.174;6.730;2022-07-17T13:04:19;3.90;;;1.90;;
56541;SDS011;42438;53.174;6.730;2022-07-17T13:06:51;4.03;;;1.73;;
56541;SDS011;42438;53.174;6.730;2022-07-17T13:09:21;5.80;;;1.95;;
56541;SDS011;42438;53.174;6.730;2022-07-17T13:11:52;2.97;;;1.63;;
56541;SDS011;42438;53.174;6.730;2022-07-17T13:14:23;4.78;;;2.20;;
56541;SDS011;42438;53.174;6.730;2022-07-17T13:16:54;4.32;;;2.15;;
56541;SDS011;42438;53.174;6.730;2022-07-17T13:19:24;7.13;;;2.10;;
56541;SDS011;42438;53.174;6.730;2022-07-17T13:21:55;3.67;;;1.98;;
56541;SDS011;42438;53.174;6.730;2022-07-17T13:24:26;5.75;;;2.35;;
56541;SDS011;42438;53.174;6.730;2022-07-17T13:26:57;5.80;;;2.17;;
56541;SDS011;42438;53.174;6.730;2022-07-17T13:29:28;4.40;;;2.55;;
56541;SDS011;42438;53.174;6.730;2022-07-17T13:31:59;4.97;;;2.10;;
56541;SDS011;42438;53.174;6.730;2022-07-17T13:34:29;4.35;;;2.03;;
56541;SDS011;42438;53.174;6.730;2022-07-17T13:37:00;6.88;;;2.13;;
56541;SDS011;42438;53.174;6.730;2022-07-17T13:39:31;5.13;;;2.10;;
56541;SDS011;42438;53.174;6.730;2022-07-17T13:42:02;5.47;;;1.70;;
56541;SDS011;42438;53.174;6.730;2022-07-17T13:44:33;5.47;;;2.30;;
56541;SDS011;42438;53.174;6.730;2022-07-17T13:47:03;4.88;;;2.25;;
56541;SDS011;42438;53.174;6.730;2022-07-17T13:49:34;3.13;;;2.10;;
56541;SDS011;42438;53.174;6.730;2022-07-17T13:52:05;3.80;;;2.22;;
56541;SDS011;42438;53.174;6.730;2022-07-17T13:54:36;5.28;;;2.22;;
56541;SDS011;42438;53.174;6.730;2022-07-17T13:57:07;4.80;;;2.42;;
56541;SDS011;42438;53.174;6.730;2022-07-17T13:59:39;4.50;;;2.28;;
56541;SDS011;42438;53.174;6.730;2022-07-17T14:02:10;6.95;;;2.95;;
56541;SDS011;42438;53.174;6.730;2022-07-17T14:04:41;6.13;;;3.35;;
56541;SDS011;42438;53.174;6.730;2022-07-17T14:07:12;3.88;;;2.35;;
56541;SDS011;42438;53.174;6.730;2022-07-17T14:09:44;6.15;;;2.92;;
56541;SDS011;42438;53.174;6.730;2022-07-17T14:12:15;5.20;;;2.60;;
56541;SDS011;42438;53.174;6.730;2022-07-17T14:14:46;6.47;;;2.72;;
56541;SDS011;42438;53.174;6.730;2022-07-17T14:17:17;6.55;;;2.88;;
56541;SDS011;42438;53.174;6.730;2022-07-17T14:19:48;6.03;;;2.60;;
56541;SDS011;42438;53.174;6.730;2022-07-17T14:22:19;4.63;;;2.60;;
56541;SDS011;42438;53.174;6.730;2022-07-17T14:24:50;6.70;;;2.67;;
56541;SDS011;42438;53.174;6.730;2022-07-17T14:27:22;4.47;;;2.70;;
56541;SDS011;42438;53.174;6.730;2022-07-17T14:29:53;6.10;;;3.22;;
56541;SDS011;42438;53.174;6.730;2022-07-17T14:32:25;4.88;;;2.65;;
56541;SDS011;42438;53.174;6.730;2022-07-17T14:34:55;4.07;;;2.38;;
56541;SDS011;42438;53.174;6.730;2022-07-17T14:37:26;4.40;;;2.60;;
56541;SDS011;42438;53.174;6.730;2022-07-17T14:39:57;5.40;;;2.58;;
56541;SDS011;42438;53.174;6.730;2022-07-17T14:42:27;6.03;;;2.45;;
56541;SDS011;42438;53.174;6.730;2022-07-17T14:44:58;5.15;;;2.63;;
56541;SDS011;42438;53.174;6.730;2022-07-17T14:47:29;4.65;;;2.60;;
56541;SDS011;42438;53.174;6.730;2022-07-17T14:50:00;5.15;;;2.90;;
56541;SDS011;42438;53.174;6.730;2022-07-17T14:52:31;7.20;;;2.95;;
56541;SDS011;42438;53.174;6.730;2022-07-17T14:55:02;4.68;;;2.55;;
56541;SDS011;42438;53.174;6.730;2022-07-17T14:57:33;6.13;;;2.95;;
56541;SDS011;42438;53.174;6.730;2022-07-17T15:00:04;6.20;;;2.67;;
56541;SDS011;42438;53.174;6.730;2022-07-17T15:02:35;5.35;;;2.83;;
56541;SDS011;42438;53.174;6.730;2022-07-17T15:05:06;6.40;;;3.15;;
56541;SDS011;42438;53.174;6.730;2022-07-17T15:07:38;6.00;;;2.88;;
56541;SDS011;42438;53.174;6.730;2022-07-17T15:10:09;6.68;;;2.75;;
56541;SDS011;42438;53.174;6.730;2022-07-17T15:12:39;5.70;;;2.75;;
56541;SDS011;42438;53.174;6.730;2022-07-17T15:15:10;6.63;;;3.00;;
56541;SDS011;42438;53.174;6.730;2022-07-17T15:17:41;4.10;;;2.60;;
56541;SDS011;42438;53.174;6.730;2022-07-17T15:20:11;5.30;;;2.65;;
56541;SDS011;42438;53.174;6.730;2022-07-17T15:22:42;4.35;;;2.67;;
56541;SDS011;42438;53.174;6.730;2022-07-17T15:25:13;4.00;;;2.30;;
56541;SDS011;42438;53.174;6.730;2022-07-17T15:27:43;5.50;;;2.60;;
56541;SDS011;42438;53.174;6.730;2022-07-17T15:30:14;8.70;;;2.83;;
56541;SDS011;42438;53.174;6.730;2022-07-17T15:32:45;7.18;;;2.92;;
56541;SDS011;42438;53.174;6.730;2022-07-17T15:35:15;5.78;;;2.63;;
56541;SDS011;42438;53.174;6.730;2022-07-17T15:37:46;4.15;;;2.50;;